Thailine 9 — 9WGP9 — position and weather

sailwx.info

Track history (hours):
 
Tides and Currents Weather Stations Pressure Air Temp Water Temp Dewpoint Dewpoint Depression Visibility Wind Speed Wind Dir Waves Ship Positions

Thailine 9

Last reported at 2015-Jun-05 14:31 UTC. Time now 2015-Jul-03 10:42 UTC.
Position N 22°17' E 120°09'.
Warning: this ship's position is 27 days out of date.

Length 113 m; draft 4.2 m.

Type: Cargo ship. MMSI: 533791000.

Date/timePositionNaut miles runAvg speedWind from/ knotsBaromVisibWave heightAir tempDewpointWater temp
2015-Jun-05 14:31N 22°17' E 120°09'1111.4
2015-Jun-05 13:33N 22°28' E 120°10'1010.1
2015-Jun-05 12:33N 22°38' E 120°12'5 5.4
2015-Jun-05 11:33N 22°36' E 120°17'0 0.0
2015-Jun-05 10:28N 22°36' E 120°17'0 0.0
2015-Jun-05 09:22N 22°36' E 120°17'0 0.0
2015-Jun-05 08:28N 22°36' E 120°17'0 0.0
2015-Jun-05 07:28N 22°36' E 120°17'0 0.0
2015-Jun-05 06:28N 22°36' E 120°17'0 0.0
2015-Jun-05 05:28N 22°36' E 120°17'0 0.0
2015-Jun-05 04:28N 22°36' E 120°17'0 0.0
2015-Jun-05 03:22N 22°36' E 120°17'0 0.0
2015-Jun-05 02:28N 22°36' E 120°17'0 0.0
2015-Jun-05 01:10N 22°36' E 120°17'0 0.0
2015-Jun-05 00:28N 22°36' E 120°17'0 0.0
2015-Jun-04 23:28N 22°36' E 120°17'0 0.0
2015-Jun-04 19:04N 22°36' E 120°17'0 0.0
2015-Jun-04 18:28N 22°36' E 120°17'0 0.0
2015-Jun-04 17:28N 22°36' E 120°17'0 0.0
2015-Jun-04 16:28N 22°36' E 120°17'0 0.0
2015-Jun-04 15:28N 22°36' E 120°17'0 0.0
2015-Jun-04 14:28N 22°36' E 120°17'0 0.0
2015-Jun-04 13:28N 22°36' E 120°17'0 0.0
2015-Jun-04 12:28N 22°36' E 120°17'0 0.0
2015-Jun-04 11:04N 22°36' E 120°17'0 0.0
2015-Jun-04 10:28N 22°36' E 120°17'0 0.0
2015-Jun-04 09:22N 22°36' E 120°17'0 0.0
2015-Jun-04 08:28N 22°36' E 120°17'0 0.0
2015-Jun-04 07:28N 22°36' E 120°17'0 0.0
2015-Jun-04 06:28N 22°36' E 120°17'0 0.0
2015-Jun-04 05:28N 22°36' E 120°17'0 0.0
2015-Jun-04 04:28N 22°36' E 120°17'0 0.0
2015-Jun-04 03:28N 22°36' E 120°17'0 0.0
2015-Jun-04 02:28N 22°36' E 120°17'0 0.0
2015-Jun-04 01:28N 22°36' E 120°17'0 0.0
2015-Jun-04 00:13N 22°36' E 120°17'1 1.9
2015-Jun-03 23:33N 22°37' E 120°17'2 1.8
2015-Jun-03 22:31N 22°37' E 120°15'0 0.0
2015-Jun-03 21:31N 22°37' E 120°15'0 0.0
2015-Jun-03 20:31N 22°37' E 120°15'0 0.0
2015-Jun-03 19:31N 22°37' E 120°15'0 0.0
2015-Jun-03 18:31N 22°37' E 120°15'0 0.0
2015-Jun-03 16:28N 22°37' E 120°15'0 0.0
2015-Jun-03 15:16N 22°37' E 120°15'0 0.0
2015-Jun-03 14:28N 22°37' E 120°15'0 0.0
2015-Jun-03 13:28N 22°37' E 120°15'3 3.8
2015-Jun-03 12:33N 22°36' E 120°11'1312.6
2015-Jun-03 11:33N 22°23' E 120°09'1312.7
2015-Jun-03 10:30N 22°10' E 120°08'1613.1
2015-Jun-03 09:14N 21°54' E 120°07'  
Track history (hours):
 
Tides and Currents Weather Stations Pressure Air Temp Water Temp Dewpoint Dewpoint Depression Visibility Wind Speed Wind Dir Waves Ship Positions

Thailine 9

Last reported at 2015-Jun-05 14:31 UTC. Time now 2015-Jul-03 10:42 UTC.
Position N 22°17' E 120°09'.
Warning: this ship's position is 27 days out of date.

Length 113 m; draft 4.2 m.

Type: Cargo ship. MMSI: 533791000.

Date/timePositionNaut miles runAvg speedWind from/ knotsBaromVisibWave heightAir tempDewpointWater temp
2015-Jun-05 14:31N 22°17' E 120°09'1111.4
2015-Jun-05 13:33N 22°28' E 120°10'1010.1
2015-Jun-05 12:33N 22°38' E 120°12'5 5.4
2015-Jun-05 11:33N 22°36' E 120°17'0 0.0
2015-Jun-05 10:28N 22°36' E 120°17'0 0.0
2015-Jun-05 09:22N 22°36' E 120°17'0 0.0
2015-Jun-05 08:28N 22°36' E 120°17'0 0.0
2015-Jun-05 07:28N 22°36' E 120°17'0 0.0
2015-Jun-05 06:28N 22°36' E 120°17'0 0.0
2015-Jun-05 05:28N 22°36' E 120°17'0 0.0
2015-Jun-05 04:28N 22°36' E 120°17'0 0.0
2015-Jun-05 03:22N 22°36' E 120°17'0 0.0
2015-Jun-05 02:28N 22°36' E 120°17'0 0.0
2015-Jun-05 01:10N 22°36' E 120°17'0 0.0
2015-Jun-05 00:28N 22°36' E 120°17'0 0.0
2015-Jun-04 23:28N 22°36' E 120°17'0 0.0
2015-Jun-04 19:04N 22°36' E 120°17'0 0.0
2015-Jun-04 18:28N 22°36' E 120°17'0 0.0
2015-Jun-04 17:28N 22°36' E 120°17'0 0.0
2015-Jun-04 16:28N 22°36' E 120°17'0 0.0
2015-Jun-04 15:28N 22°36' E 120°17'0 0.0
2015-Jun-04 14:28N 22°36' E 120°17'0 0.0
2015-Jun-04 13:28N 22°36' E 120°17'0 0.0
2015-Jun-04 12:28N 22°36' E 120°17'0 0.0
2015-Jun-04 11:04N 22°36' E 120°17'0 0.0
2015-Jun-04 10:28N 22°36' E 120°17'0 0.0
2015-Jun-04 09:22N 22°36' E 120°17'0 0.0
2015-Jun-04 08:28N 22°36' E 120°17'0 0.0
2015-Jun-04 07:28N 22°36' E 120°17'0 0.0
2015-Jun-04 06:28N 22°36' E 120°17'0 0.0
2015-Jun-04 05:28N 22°36' E 120°17'0 0.0
2015-Jun-04 04:28N 22°36' E 120°17'0 0.0
2015-Jun-04 03:28N 22°36' E 120°17'0 0.0
2015-Jun-04 02:28N 22°36' E 120°17'0 0.0
2015-Jun-04 01:28N 22°36' E 120°17'0 0.0
2015-Jun-04 00:13N 22°36' E 120°17'1 1.9
2015-Jun-03 23:33N 22°37' E 120°17'2 1.8
2015-Jun-03 22:31N 22°37' E 120°15'0 0.0
2015-Jun-03 21:31N 22°37' E 120°15'0 0.0
2015-Jun-03 20:31N 22°37' E 120°15'0 0.0
2015-Jun-03 19:31N 22°37' E 120°15'0 0.0
2015-Jun-03 18:31N 22°37' E 120°15'0 0.0
2015-Jun-03 16:28N 22°37' E 120°15'0 0.0
2015-Jun-03 15:16N 22°37' E 120°15'0 0.0
2015-Jun-03 14:28N 22°37' E 120°15'0 0.0
2015-Jun-03 13:28N 22°37' E 120°15'3 3.8
2015-Jun-03 12:33N 22°36' E 120°11'1312.6
2015-Jun-03 11:33N 22°23' E 120°09'1312.7
2015-Jun-03 10:30N 22°10' E 120°08'1613.1
2015-Jun-03 09:14N 21°54' E 120°07'  

Dump ship's entire track history